createdAt,value
2023-03-23T22:18:43.702Z,14.60
2023-03-23T22:19:42.605Z,14.30
2023-03-23T22:20:42.614Z,16.00
2023-03-23T22:21:42.622Z,13.20
2023-03-23T22:22:42.542Z,14.00
2023-03-23T22:23:42.526Z,15.00
2023-03-23T22:24:42.599Z,15.40
2023-03-23T22:25:42.568Z,14.30
2023-03-23T22:26:42.488Z,12.40
2023-03-23T22:27:43.436Z,15.10
2023-03-23T22:28:43.276Z,11.50
2023-03-23T22:29:42.471Z,14.10
2023-03-23T22:30:42.452Z,13.10
2023-03-23T22:31:44.724Z,14.00
2023-03-23T22:32:42.439Z,14.60
2023-03-23T22:33:42.441Z,11.20
2023-03-23T22:34:42.394Z,11.40
2023-03-23T22:35:42.457Z,11.90
2023-03-23T22:36:42.350Z,12.10
2023-03-23T22:37:42.351Z,11.40
2023-03-23T22:38:42.335Z,11.30
2023-03-23T22:39:42.312Z,12.10
2023-03-23T22:40:42.668Z,14.40
2023-03-23T22:41:42.756Z,12.80
2023-03-23T22:42:42.736Z,11.90
2023-03-23T22:43:43.124Z,10.50
2023-03-23T22:44:42.248Z,9.50
2023-03-23T22:45:42.243Z,11.10
2023-03-23T22:46:42.220Z,9.50
2023-03-23T22:47:42.297Z,10.50
2023-03-23T22:48:42.206Z,11.80
2023-03-23T22:49:42.228Z,11.60
2023-03-23T22:50:42.199Z,11.00
2023-03-23T22:51:42.160Z,11.10
2023-03-23T22:52:42.156Z,9.80
2023-03-23T22:53:42.123Z,11.00
2023-03-23T22:54:43.122Z,10.00
2023-03-23T22:55:42.088Z,9.70
2023-03-23T22:56:42.114Z,8.90
2023-03-23T22:57:42.085Z,9.30
2023-03-23T22:58:42.113Z,8.80
2023-03-23T22:59:42.885Z,8.80
2023-03-23T23:00:42.873Z,8.40
2023-03-23T23:01:42.002Z,7.90
2023-03-23T23:02:42.077Z,9.70
2023-03-23T23:03:42.381Z,10.10
2023-03-23T23:04:41.998Z,8.90
2023-03-23T23:05:54.529Z,8.10
2023-03-23T23:06:41.928Z,7.30
2023-03-23T23:07:42.014Z,10.30
2023-03-23T23:08:42.986Z,7.00
2023-03-23T23:09:41.925Z,8.20
2023-03-23T23:10:41.998Z,7.10
2023-03-23T23:11:42.306Z,7.10
2023-03-23T23:12:41.915Z,7.70
2023-03-23T23:13:41.846Z,7.30
2023-03-23T23:14:42.805Z,7.20
2023-03-23T23:15:41.863Z,7.40
2023-03-23T23:16:41.869Z,7.00
2023-03-23T23:17:41.835Z,7.00
2023-03-23T23:18:41.785Z,6.70
2023-03-23T23:19:41.789Z,7.20
2023-03-23T23:20:41.732Z,7.20
2023-03-23T23:21:42.601Z,7.10
2023-03-23T23:22:43.781Z,7.00
2023-03-23T23:23:41.734Z,7.30
2023-03-23T23:24:41.781Z,6.40
2023-03-23T23:25:42.742Z,8.20
2023-03-23T23:26:41.686Z,6.60
2023-03-23T23:27:41.652Z,6.60
2023-03-23T23:28:42.649Z,5.30
2023-03-23T23:29:42.589Z,5.80
2023-03-23T23:30:41.622Z,5.10
2023-03-23T23:31:42.361Z,6.30
2023-03-23T23:32:41.593Z,5.00
2023-03-23T23:33:41.583Z,6.60
2023-03-23T23:34:42.329Z,5.10
2023-03-23T23:35:42.533Z,7.70
2023-03-23T23:36:42.426Z,5.20
2023-03-23T23:37:42.291Z,5.80
2023-03-23T23:38:42.454Z,6.50
2023-03-23T23:39:41.480Z,6.20
2023-03-23T23:40:41.465Z,5.40
2023-03-23T23:41:42.451Z,4.50
2023-03-23T23:42:42.324Z,4.90
2023-03-23T23:43:41.425Z,5.00
2023-03-23T23:44:42.389Z,5.50
2023-03-23T23:45:41.509Z,5.40
2023-03-23T23:46:42.194Z,4.80
2023-03-23T23:47:42.404Z,5.60
2023-03-23T23:48:41.362Z,4.70
2023-03-23T23:49:41.356Z,5.10
2023-03-23T23:50:42.323Z,4.90
2023-03-23T23:51:41.327Z,6.20
2023-03-23T23:52:41.338Z,4.50
2023-03-23T23:53:41.274Z,4.50
2023-03-23T23:54:42.200Z,5.00
2023-03-23T23:55:41.281Z,5.60
2023-03-23T23:56:42.086Z,4.60
2023-03-23T23:57:41.211Z,3.60
2023-03-23T23:58:42.072Z,4.30
2023-03-23T23:59:41.974Z,4.40
